createdAt,value
2019-05-17T00:01:37.566Z,7.70
2019-05-17T00:04:07.225Z,7.70
2019-05-17T00:06:37.085Z,7.70
2019-05-17T00:09:08.072Z,7.70
2019-05-17T00:11:37.221Z,7.70
2019-05-17T00:14:06.443Z,7.80
2019-05-17T00:16:37.526Z,7.90
2019-05-17T00:19:07.529Z,7.90
2019-05-17T00:21:36.982Z,7.90
2019-05-17T00:24:06.808Z,8.00
2019-05-17T00:26:36.272Z,8.00
2019-05-17T00:29:06.801Z,8.00
2019-05-17T00:31:36.952Z,8.10
2019-05-17T00:34:07.509Z,8.10
2019-05-17T00:36:37.446Z,8.10
2019-05-17T00:39:07.713Z,8.10
2019-05-17T00:41:37.554Z,8.10
2019-05-17T00:44:07.250Z,8.20
2019-05-17T00:46:37.231Z,8.20
2019-05-17T00:49:06.645Z,8.20
2019-05-17T00:51:36.889Z,8.20
2019-05-17T00:54:06.939Z,8.20
2019-05-17T00:56:37.164Z,8.20
2019-05-17T00:59:07.513Z,8.20
2019-05-17T01:01:36.765Z,8.30
2019-05-17T01:04:06.841Z,8.20
2019-05-17T01:06:37.519Z,8.20
2019-05-17T01:09:08.161Z,8.20
2019-05-17T01:11:36.859Z,8.20
2019-05-17T01:14:06.864Z,8.10
2019-05-17T01:16:36.751Z,8.20
2019-05-17T01:19:06.831Z,8.10
2019-05-17T01:21:36.851Z,8.10
2019-05-17T01:24:06.878Z,8.10
2019-05-17T01:26:37.447Z,8.10
2019-05-17T01:29:06.913Z,8.20
2019-05-17T01:31:37.362Z,8.20
2019-05-17T01:34:08.937Z,8.20
2019-05-17T01:36:38.046Z,8.10
2019-05-17T01:39:16.955Z,8.10
2019-05-17T01:41:37.529Z,8.20
2019-05-17T01:44:07.473Z,8.20
2019-05-17T01:46:37.098Z,8.20
2019-05-17T01:49:06.879Z,8.10
2019-05-17T01:51:37.057Z,8.10
2019-05-17T01:54:06.832Z,8.10
2019-05-17T01:56:36.997Z,8.20
2019-05-17T01:59:06.840Z,8.10
2019-05-17T02:01:37.109Z,8.10
2019-05-17T02:04:06.801Z,8.10
2019-05-17T02:06:36.658Z,8.10
2019-05-17T02:09:07.047Z,8.00
2019-05-17T02:11:37.211Z,8.00
2019-05-17T02:14:07.097Z,8.00
2019-05-17T02:16:37.637Z,7.90
2019-05-17T02:19:06.823Z,7.90
2019-05-17T02:21:38.548Z,7.90
2019-05-17T02:24:07.975Z,7.90
2019-05-17T02:26:37.539Z,7.80
2019-05-17T02:29:07.288Z,7.80
2019-05-17T02:31:36.222Z,7.80
2019-05-17T02:34:05.387Z,7.80
2019-05-17T02:36:35.158Z,7.80
2019-05-17T02:39:05.730Z,7.80
2019-05-17T02:41:34.917Z,7.70
2019-05-17T02:44:04.949Z,7.60
2019-05-17T02:46:34.057Z,7.70
2019-05-17T02:49:03.326Z,7.60
2019-05-17T02:51:32.692Z,7.60
2019-05-17T02:54:04.099Z,7.50
2019-05-17T02:56:32.870Z,7.50
2019-05-17T02:59:03.591Z,7.50
2019-05-17T03:01:33.608Z,7.50
2019-05-17T03:04:04.195Z,7.50
2019-05-17T03:06:34.080Z,7.50
2019-05-17T03:09:03.649Z,7.50
2019-05-17T03:11:33.485Z,7.50
2019-05-17T03:14:03.922Z,7.50
2019-05-17T03:16:33.875Z,7.40
2019-05-17T03:19:04.212Z,7.40
2019-05-17T03:21:34.072Z,7.30
2019-05-17T03:24:04.640Z,7.40
2019-05-17T03:26:33.505Z,7.40
2019-05-17T03:29:03.292Z,7.40
2019-05-17T03:31:40.719Z,7.40
2019-05-17T03:34:06.622Z,7.30
2019-05-17T03:36:36.165Z,7.30
2019-05-17T03:39:07.479Z,7.20
2019-05-17T03:41:36.188Z,7.20
2019-05-17T03:44:05.095Z,7.20
2019-05-17T03:46:33.834Z,7.20
2019-05-17T03:49:03.929Z,7.20
2019-05-17T03:51:33.594Z,7.20
2019-05-17T03:54:02.846Z,7.10
2019-05-17T03:56:32.966Z,7.10
2019-05-17T03:59:03.836Z,7.00
2019-05-17T04:01:33.352Z,6.90
2019-05-17T04:04:03.073Z,6.90
2019-05-17T04:06:33.055Z,7.00
2019-05-17T04:09:03.723Z,7.00
2019-05-17T04:11:36.558Z,7.00
2019-05-17T04:14:04.372Z,6.90
2019-05-17T04:16:33.985Z,6.90
2019-05-17T04:19:03.545Z,6.90
2019-05-17T04:21:34.284Z,6.80
2019-05-17T04:24:03.620Z,6.80
2019-05-17T04:26:32.919Z,6.80
2019-05-17T04:29:03.520Z,6.80
2019-05-17T04:31:34.841Z,6.80
2019-05-17T04:34:03.411Z,6.80
2019-05-17T04:36:32.509Z,6.80
2019-05-17T04:39:02.386Z,6.80
2019-05-17T04:41:41.557Z,6.80
2019-05-17T04:44:02.837Z,6.80
2019-05-17T04:46:32.602Z,6.80
2019-05-17T04:49:03.051Z,6.80
2019-05-17T04:51:32.380Z,6.80
2019-05-17T04:54:03.174Z,6.90
2019-05-17T04:56:33.500Z,6.90
2019-05-17T04:59:03.768Z,6.90
2019-05-17T05:01:33.260Z,6.90
2019-05-17T05:04:03.665Z,7.00
2019-05-17T05:06:33.066Z,7.10
2019-05-17T05:09:02.701Z,7.20
2019-05-17T05:11:32.812Z,7.20
2019-05-17T05:14:02.998Z,7.20
2019-05-17T05:16:32.578Z,7.30
2019-05-17T05:19:02.968Z,7.30
2019-05-17T05:21:32.822Z,7.30
2019-05-17T05:24:02.539Z,7.30
2019-05-17T05:26:31.920Z,7.30
2019-05-17T05:29:02.237Z,7.40
2019-05-17T05:31:32.167Z,7.30
2019-05-17T05:34:01.984Z,7.30
2019-05-17T05:36:32.806Z,7.30
2019-05-17T05:39:02.517Z,7.40
2019-05-17T05:41:32.117Z,7.40
2019-05-17T05:44:02.019Z,7.40
2019-05-17T05:46:31.774Z,7.50
2019-05-17T05:49:01.932Z,7.50
2019-05-17T05:51:32.087Z,7.50
2019-05-17T05:54:01.862Z,7.50
2019-05-17T05:56:32.592Z,7.60
2019-05-17T05:59:02.876Z,7.70
2019-05-17T06:01:32.599Z,7.80
2019-05-17T06:04:02.841Z,7.90
2019-05-17T06:06:32.304Z,8.00
2019-05-17T06:09:02.746Z,8.00
2019-05-17T06:11:32.378Z,8.10
2019-05-17T06:14:01.716Z,8.20
2019-05-17T06:16:32.130Z,8.20
2019-05-17T06:19:02.371Z,8.30
2019-05-17T06:21:31.923Z,8.30
2019-05-17T06:24:02.648Z,8.20
2019-05-17T06:26:31.988Z,8.20
2019-05-17T06:29:02.728Z,8.20
2019-05-17T06:31:33.327Z,8.20
2019-05-17T06:34:02.421Z,8.30
2019-05-17T06:36:32.843Z,8.40
2019-05-17T06:39:02.783Z,8.30
2019-05-17T06:41:32.346Z,8.40
2019-05-17T06:44:02.873Z,8.40
2019-05-17T06:46:32.587Z,8.40
2019-05-17T06:49:03.082Z,8.40
2019-05-17T06:51:31.973Z,8.40
2019-05-17T06:54:01.780Z,8.40
2019-05-17T06:56:32.242Z,8.40
2019-05-17T06:59:01.791Z,8.50
2019-05-17T07:01:30.504Z,8.60
2019-05-17T07:04:00.302Z,8.70
2019-05-17T07:06:31.246Z,8.90
2019-05-17T07:09:00.952Z,8.80
2019-05-17T07:11:30.440Z,9.10
2019-05-17T07:13:59.799Z,9.30
2019-05-17T07:16:30.075Z,9.50
2019-05-17T07:18:59.699Z,9.80
2019-05-17T07:21:29.740Z,10.00
2019-05-17T07:23:59.374Z,10.30
2019-05-17T07:26:30.097Z,10.50
2019-05-17T07:28:59.266Z,10.80
2019-05-17T07:31:29.797Z,11.20
2019-05-17T07:33:59.874Z,11.50
2019-05-17T07:36:30.623Z,12.00
2019-05-17T07:39:00.773Z,12.40
2019-05-17T07:41:30.079Z,12.90
2019-05-17T07:44:00.397Z,13.60
2019-05-17T07:46:29.490Z,14.40
2019-05-17T07:49:00.375Z,15.00
2019-05-17T07:51:30.168Z,15.60
2019-05-17T07:53:59.794Z,16.10
2019-05-17T07:56:30.569Z,16.10
2019-05-17T07:59:00.182Z,16.10
2019-05-17T08:01:29.676Z,15.90
2019-05-17T08:04:00.567Z,15.70
2019-05-17T08:06:30.584Z,15.50
2019-05-17T08:09:03.891Z,15.60
2019-05-17T08:11:30.481Z,15.50
2019-05-17T08:13:59.851Z,15.50
2019-05-17T08:16:30.381Z,15.40
2019-05-17T08:19:00.331Z,16.00
2019-05-17T08:21:30.534Z,16.60
2019-05-17T08:24:00.209Z,17.20
2019-05-17T08:26:29.889Z,17.80
2019-05-17T08:29:00.677Z,18.50
2019-05-17T08:31:29.605Z,18.90
2019-05-17T08:34:00.100Z,19.70
2019-05-17T08:36:29.872Z,19.60
2019-05-17T08:38:59.777Z,20.20
2019-05-17T08:41:30.931Z,20.00
2019-05-17T08:44:00.700Z,20.20
2019-05-17T08:46:30.540Z,20.60
2019-05-17T08:49:00.395Z,20.90
2019-05-17T08:51:30.469Z,20.90
2019-05-17T08:54:00.118Z,21.10
2019-05-17T08:56:30.899Z,21.20
2019-05-17T08:59:00.754Z,21.50
2019-05-17T09:01:30.288Z,21.60
2019-05-17T09:03:59.993Z,21.90
2019-05-17T09:06:29.430Z,22.00
2019-05-17T09:09:00.630Z,22.50
2019-05-17T09:11:30.272Z,22.40
2019-05-17T09:14:01.940Z,22.50
2019-05-17T09:16:30.700Z,22.90
2019-05-17T09:19:00.494Z,23.10
2019-05-17T09:21:31.408Z,22.50
2019-05-17T09:24:00.909Z,22.50
2019-05-17T09:26:30.004Z,22.80
2019-05-17T09:29:01.319Z,22.90
2019-05-17T09:31:29.865Z,22.50
2019-05-17T09:34:00.238Z,22.80
2019-05-17T09:36:30.366Z,22.70
2019-05-17T09:39:00.098Z,23.00
2019-05-17T09:41:29.715Z,23.20
2019-05-17T09:44:11.308Z,22.90
2019-05-17T09:46:30.343Z,23.10
2019-05-17T09:49:01.116Z,23.20
2019-05-17T09:51:30.412Z,23.20
2019-05-17T09:54:00.045Z,23.40
2019-05-17T09:56:30.050Z,23.50
2019-05-17T09:59:00.412Z,23.50
2019-05-17T10:01:30.312Z,23.70
2019-05-17T10:04:00.095Z,23.80
2019-05-17T10:06:28.814Z,23.80
2019-05-17T10:09:00.043Z,23.10
2019-05-17T10:11:28.076Z,23.40
2019-05-17T10:13:58.971Z,23.40
2019-05-17T10:16:27.113Z,23.30
2019-05-17T10:18:55.873Z,23.40
2019-05-17T10:21:25.889Z,23.60
2019-05-17T10:23:55.218Z,23.60
2019-05-17T10:26:24.021Z,22.90
2019-05-17T10:28:52.745Z,22.60
2019-05-17T10:31:21.786Z,22.60
2019-05-17T10:33:50.999Z,23.20
2019-05-17T10:36:20.336Z,23.50
2019-05-17T10:38:50.185Z,23.30
2019-05-17T10:41:20.030Z,22.80
2019-05-17T10:43:50.072Z,23.30
2019-05-17T10:46:20.563Z,23.30
2019-05-17T10:48:50.655Z,23.40
2019-05-17T10:51:20.301Z,23.60
2019-05-17T10:53:51.252Z,23.10
2019-05-17T10:56:22.960Z,23.20
2019-05-17T10:58:50.644Z,23.40
2019-05-17T11:01:20.103Z,23.40
2019-05-17T11:03:50.301Z,23.60
2019-05-17T11:06:19.859Z,23.60
2019-05-17T11:08:50.154Z,23.60
2019-05-17T11:11:20.231Z,24.00
2019-05-17T11:13:49.387Z,23.80
2019-05-17T11:16:18.162Z,23.50
2019-05-17T11:18:46.923Z,23.40
2019-05-17T11:21:15.655Z,23.80
2019-05-17T11:23:45.135Z,23.90
2019-05-17T11:26:13.900Z,23.90
2019-05-17T11:28:43.006Z,23.80
2019-05-17T11:31:11.985Z,23.90
2019-05-17T11:33:41.178Z,23.70
2019-05-17T11:36:09.908Z,23.30
2019-05-17T11:38:38.654Z,23.30
2019-05-17T11:41:20.672Z,23.00
2019-05-17T11:43:38.486Z,22.70
2019-05-17T11:46:07.593Z,23.10
2019-05-17T11:48:36.351Z,23.00
2019-05-17T11:51:05.352Z,22.80
2019-05-17T11:53:34.096Z,23.10
2019-05-17T11:56:02.852Z,23.20
2019-05-17T11:58:31.668Z,23.10
2019-05-17T12:01:00.494Z,22.50
2019-05-17T12:03:29.615Z,22.50
2019-05-17T12:05:58.383Z,22.60
2019-05-17T12:08:27.399Z,22.00
2019-05-17T12:10:56.527Z,21.70
2019-05-17T12:13:25.221Z,21.40
2019-05-17T12:15:54.180Z,21.20
2019-05-17T12:18:23.301Z,21.00
2019-05-17T12:20:52.391Z,20.60
2019-05-17T12:23:21.487Z,21.00
2019-05-17T12:25:50.246Z,21.30
2019-05-17T12:28:18.989Z,21.30
2019-05-17T12:30:47.737Z,21.50
2019-05-17T12:33:16.494Z,21.20
2019-05-17T12:35:45.262Z,21.00
2019-05-17T12:38:14.377Z,21.30
2019-05-17T12:40:43.079Z,21.30
2019-05-17T12:43:12.112Z,20.80
2019-05-17T12:45:40.862Z,19.50
2019-05-17T12:48:10.013Z,19.40
2019-05-17T12:50:39.083Z,19.20
2019-05-17T12:53:07.809Z,19.30
2019-05-17T12:55:36.979Z,19.30
2019-05-17T12:58:06.074Z,19.30
2019-05-17T13:00:34.849Z,19.30
2019-05-17T13:03:03.950Z,19.50
2019-05-17T13:05:32.688Z,19.60
2019-05-17T13:08:01.745Z,19.70
2019-05-17T13:10:30.836Z,19.00
2019-05-17T13:12:59.601Z,18.90
2019-05-17T13:15:28.713Z,19.20
2019-05-17T13:17:57.436Z,19.00
2019-05-17T13:20:26.529Z,19.30
2019-05-17T13:22:55.497Z,18.90
2019-05-17T13:25:24.274Z,19.00
2019-05-17T13:27:52.943Z,18.90
2019-05-17T13:30:22.084Z,19.20
2019-05-17T13:32:51.162Z,19.30
2019-05-17T13:35:20.278Z,19.40
2019-05-17T13:37:48.920Z,19.40
2019-05-17T13:40:18.061Z,19.60
2019-05-17T13:42:46.901Z,20.10
2019-05-17T13:45:17.007Z,19.70
2019-05-17T13:47:46.045Z,19.60
2019-05-17T13:50:15.284Z,19.90
2019-05-17T13:52:43.982Z,20.20
2019-05-17T13:55:13.949Z,20.20
2019-05-17T13:57:42.690Z,20.10
2019-05-17T14:00:11.850Z,20.30
2019-05-17T14:02:40.947Z,20.50
2019-05-17T14:05:10.260Z,20.70
2019-05-17T14:07:39.346Z,20.80
2019-05-17T14:10:24.492Z,21.00
2019-05-17T14:12:39.173Z,20.40
2019-05-17T14:15:09.203Z,20.40
2019-05-17T14:17:37.987Z,20.40
2019-05-17T14:20:07.884Z,20.30
2019-05-17T14:22:36.988Z,20.30
2019-05-17T14:25:08.041Z,20.30
2019-05-17T14:27:37.148Z,20.10
2019-05-17T14:30:08.285Z,20.10
2019-05-17T14:32:37.003Z,20.30
2019-05-17T14:35:06.356Z,20.30
2019-05-17T14:37:35.464Z,20.30
2019-05-17T14:40:06.701Z,19.50
2019-05-17T14:42:35.460Z,19.10
2019-05-17T14:45:06.559Z,18.80
2019-05-17T14:47:35.359Z,18.80
2019-05-17T14:50:06.710Z,18.90
2019-05-17T14:52:35.405Z,18.90
2019-05-17T14:55:04.888Z,18.60
2019-05-17T14:57:33.704Z,18.70
2019-05-17T15:00:02.758Z,18.90
2019-05-17T15:02:31.861Z,18.90
2019-05-17T15:05:00.621Z,18.40
2019-05-17T15:07:29.749Z,18.20
2019-05-17T15:09:58.478Z,18.00
2019-05-17T15:12:28.874Z,18.20
2019-05-17T15:14:57.857Z,17.90
2019-05-17T15:17:26.949Z,17.70
2019-05-17T15:19:56.060Z,17.30
2019-05-17T15:22:25.269Z,16.40
2019-05-17T15:24:54.356Z,16.20
2019-05-17T15:27:23.127Z,16.20
2019-05-17T15:29:51.943Z,16.00
2019-05-17T15:32:21.033Z,16.30
2019-05-17T15:34:49.767Z,16.30
2019-05-17T15:37:18.793Z,16.00
2019-05-17T15:39:47.541Z,15.60
2019-05-17T15:42:16.275Z,15.40
2019-05-17T15:44:45.375Z,15.20
2019-05-17T15:47:14.478Z,15.10
2019-05-17T15:49:43.487Z,15.20
2019-05-17T15:52:12.321Z,15.40
2019-05-17T15:54:41.352Z,15.20
2019-05-17T15:57:10.109Z,15.10
2019-05-17T15:59:38.862Z,15.10
2019-05-17T16:02:07.829Z,15.20
2019-05-17T16:04:36.936Z,14.90
2019-05-17T16:07:06.152Z,14.80
2019-05-17T16:09:34.872Z,15.00
2019-05-17T16:12:03.905Z,15.00
2019-05-17T16:14:33.050Z,15.00
2019-05-17T16:17:02.196Z,15.10
2019-05-17T16:19:31.315Z,15.00
2019-05-17T16:22:00.052Z,14.90
2019-05-17T16:24:29.374Z,14.70
2019-05-17T16:26:58.096Z,14.60
2019-05-17T16:29:26.841Z,14.60
2019-05-17T16:31:55.538Z,14.60
2019-05-17T16:34:24.549Z,14.70
2019-05-17T16:36:53.570Z,14.70
2019-05-17T16:39:22.381Z,14.60
2019-05-17T16:41:51.093Z,14.80
2019-05-17T16:44:20.216Z,14.80
2019-05-17T16:46:49.007Z,14.90
2019-05-17T16:49:18.119Z,14.70
2019-05-17T16:51:46.896Z,14.60
2019-05-17T16:54:15.902Z,14.60
2019-05-17T16:56:44.615Z,14.50
2019-05-17T16:59:13.418Z,14.50
2019-05-17T17:01:42.130Z,14.40
2019-05-17T17:04:11.144Z,14.40
2019-05-17T17:06:40.276Z,14.40
2019-05-17T17:09:09.339Z,14.20
2019-05-17T17:11:38.086Z,14.00
2019-05-17T17:14:07.700Z,14.00
2019-05-17T17:16:36.459Z,14.00
2019-05-17T17:19:05.583Z,13.90
2019-05-17T17:21:34.325Z,13.90
2019-05-17T17:24:03.417Z,13.90
2019-05-17T17:26:32.503Z,13.90
2019-05-17T17:29:01.147Z,13.90
2019-05-17T17:31:30.315Z,13.90
2019-05-17T17:33:59.399Z,13.90
2019-05-17T17:36:28.511Z,13.90
2019-05-17T17:38:57.231Z,13.80
2019-05-17T17:41:26.795Z,13.70
2019-05-17T17:43:58.875Z,13.70
2019-05-17T17:46:26.920Z,13.70
2019-05-17T17:48:55.737Z,13.60
2019-05-17T17:51:24.542Z,13.50
2019-05-17T17:53:53.828Z,13.50
2019-05-17T17:56:22.758Z,13.50
2019-05-17T17:58:51.799Z,13.60
2019-05-17T18:01:20.580Z,13.60
2019-05-17T18:03:49.783Z,13.50
2019-05-17T18:06:18.624Z,13.60
2019-05-17T18:08:47.676Z,13.70
2019-05-17T18:11:16.768Z,13.70
2019-05-17T18:13:46.074Z,13.80
2019-05-17T18:16:15.270Z,13.60
2019-05-17T18:18:44.950Z,13.60
2019-05-17T18:21:13.681Z,13.50
2019-05-17T18:23:42.587Z,13.40
2019-05-17T18:26:11.666Z,13.40
2019-05-17T18:28:40.445Z,13.40
2019-05-17T18:31:09.578Z,13.40
2019-05-17T18:33:38.531Z,13.40
2019-05-17T18:36:07.264Z,13.30
2019-05-17T18:38:36.836Z,13.30
2019-05-17T18:41:06.046Z,13.20
2019-05-17T18:43:35.193Z,13.20
2019-05-17T18:46:03.960Z,13.10
2019-05-17T18:48:32.758Z,13.00
2019-05-17T18:51:01.490Z,12.80
2019-05-17T18:53:31.297Z,12.80
2019-05-17T18:56:00.408Z,12.70
2019-05-17T18:58:29.202Z,12.60
2019-05-17T19:00:58.306Z,12.50
2019-05-17T19:03:28.416Z,12.40
2019-05-17T19:05:57.531Z,12.30
2019-05-17T19:08:26.606Z,12.20
2019-05-17T19:10:55.704Z,12.10
2019-05-17T19:13:25.018Z,12.00
2019-05-17T19:15:54.118Z,11.90
2019-05-17T19:18:22.854Z,11.80
2019-05-17T19:20:51.590Z,11.80
2019-05-17T19:23:20.672Z,11.70
2019-05-17T19:25:49.788Z,11.60
2019-05-17T19:28:18.643Z,11.60
2019-05-17T19:30:47.646Z,11.60
2019-05-17T19:33:16.375Z,11.50
2019-05-17T19:35:45.243Z,11.50
2019-05-17T19:38:14.331Z,11.50
2019-05-17T19:40:43.050Z,11.50
2019-05-17T19:43:11.757Z,11.50
2019-05-17T19:45:40.555Z,11.40
2019-05-17T19:48:09.608Z,11.40
2019-05-17T19:50:38.448Z,11.30
2019-05-17T19:53:07.496Z,11.20
2019-05-17T19:55:36.677Z,11.10
2019-05-17T19:58:05.898Z,11.00
2019-05-17T20:00:34.672Z,11.10
2019-05-17T20:03:03.436Z,11.00
2019-05-17T20:05:32.642Z,11.00
2019-05-17T20:08:01.421Z,10.90
2019-05-17T20:10:30.644Z,11.00
2019-05-17T20:12:59.730Z,10.90
2019-05-17T20:15:34.603Z,10.90
2019-05-17T20:18:00.070Z,10.80
2019-05-17T20:20:28.794Z,10.80
2019-05-17T20:22:58.005Z,10.80
2019-05-17T20:25:26.753Z,10.70
2019-05-17T20:27:57.544Z,10.70
2019-05-17T20:30:26.605Z,10.70
2019-05-17T20:32:55.443Z,10.70
2019-05-17T20:35:24.584Z,10.70
2019-05-17T20:37:53.676Z,10.60
2019-05-17T20:40:23.087Z,10.60
2019-05-17T20:42:53.729Z,10.60
2019-05-17T20:45:32.591Z,10.60
2019-05-17T20:47:53.647Z,10.60
2019-05-17T20:50:22.774Z,10.50
2019-05-17T20:52:51.488Z,10.50
2019-05-17T20:55:20.220Z,10.50
2019-05-17T20:57:48.975Z,10.40
2019-05-17T21:00:18.363Z,10.40
2019-05-17T21:02:47.515Z,10.40
2019-05-17T21:05:19.704Z,10.40
2019-05-17T21:07:48.453Z,10.40
2019-05-17T21:10:17.993Z,10.30
2019-05-17T21:12:46.753Z,10.30
2019-05-17T21:15:16.198Z,10.30
2019-05-17T21:17:45.098Z,10.30
2019-05-17T21:20:15.613Z,10.40
2019-05-17T21:22:44.711Z,10.30
2019-05-17T21:25:15.518Z,10.20
2019-05-17T21:27:44.571Z,10.30
2019-05-17T21:30:13.711Z,10.20
2019-05-17T21:32:42.623Z,10.20
2019-05-17T21:35:11.431Z,10.20
2019-05-17T21:37:40.068Z,10.20
2019-05-17T21:40:09.723Z,10.20
2019-05-17T21:42:38.815Z,10.20
2019-05-17T21:45:08.522Z,10.10
2019-05-17T21:47:37.398Z,10.10
2019-05-17T21:50:06.916Z,10.10
2019-05-17T21:52:35.700Z,10.00
2019-05-17T21:55:04.723Z,10.10
2019-05-17T21:57:33.914Z,10.00
2019-05-17T22:00:02.772Z,10.10
2019-05-17T22:02:31.895Z,10.10
2019-05-17T22:05:00.685Z,10.10
2019-05-17T22:07:29.797Z,10.10
2019-05-17T22:09:58.539Z,10.10
2019-05-17T22:12:27.237Z,10.20
2019-05-17T22:14:59.332Z,10.20
2019-05-17T22:17:27.955Z,10.10
2019-05-17T22:19:56.680Z,10.10
2019-05-17T22:22:25.796Z,10.10
2019-05-17T22:24:54.990Z,10.20
2019-05-17T22:27:24.071Z,10.10
2019-05-17T22:29:53.188Z,10.20
2019-05-17T22:32:21.903Z,10.10
2019-05-17T22:34:50.955Z,10.20
2019-05-17T22:37:19.712Z,10.10
2019-05-17T22:39:48.651Z,10.10
2019-05-17T22:42:17.459Z,10.10
2019-05-17T22:44:46.378Z,10.10
2019-05-17T22:47:15.091Z,10.10
2019-05-17T22:49:43.823Z,10.10
2019-05-17T22:52:13.018Z,10.10
2019-05-17T22:54:41.738Z,10.10
2019-05-17T22:57:10.794Z,10.10
2019-05-17T22:59:39.566Z,10.10
2019-05-17T23:02:08.659Z,10.10
2019-05-17T23:04:37.892Z,10.10
2019-05-17T23:07:06.673Z,10.00
2019-05-17T23:09:35.364Z,10.10
2019-05-17T23:12:04.213Z,10.10
2019-05-17T23:14:33.538Z,10.10
2019-05-17T23:17:02.634Z,10.10
2019-05-17T23:19:31.441Z,10.10
2019-05-17T23:22:00.536Z,10.00
2019-05-17T23:24:29.726Z,10.10
2019-05-17T23:26:58.429Z,10.00
2019-05-17T23:29:27.223Z,10.00
2019-05-17T23:31:56.312Z,10.10
2019-05-17T23:34:25.388Z,10.00
2019-05-17T23:36:54.150Z,10.00
2019-05-17T23:39:23.284Z,9.90
2019-05-17T23:41:52.369Z,9.90
2019-05-17T23:44:21.700Z,10.00
2019-05-17T23:47:04.736Z,10.00
2019-05-17T23:49:21.622Z,9.90
2019-05-17T23:51:50.706Z,10.00
2019-05-17T23:54:19.446Z,10.00
2019-05-17T23:56:48.592Z,9.90
2019-05-17T23:59:17.253Z,10.00
